Time;durP1;ratioP1;P1;durP2;ratioP2;P2;SDS_P1;SDS_P2;PMS_P1;PMS_P2;Temp;Humidity;BMP_temperature;BMP_pressure;BME280_temperature;BME280_humidity;BME280_pressure;Samples;Min_cycle;Max_cycle;Signal;HPM_P1;HPM_P2
2022/03/05 00:01:31;;;;;;;53.90;23.13;;;-1.10;99.90;;;;;;5074450;27;20035;-79
2022/03/05 00:03:57;;;;;;;61.33;23.25;;;-1.20;99.90;;;;;;5084190;28;20028;-77
2022/03/05 00:06:22;;;;;;;46.45;21.25;;;-1.30;99.90;;;;;;5081732;28;20484;-78
2022/03/05 00:08:53;;;;;;;62.15;23.38;;;-1.20;99.90;;;;;;5101968;27;20023;-79
2022/03/05 00:11:19;;;;;;;54.13;22.42;;;-1.20;99.90;;;;;;5083961;27;20021;-78
2022/03/05 00:13:45;;;;;;;52.78;22.38;;;-1.20;99.90;;;;;;5066502;27;20039;-78
2022/03/05 00:16:10;;;;;;;50.42;20.92;;;-1.20;99.90;;;;;;5095812;28;20845;-78
2022/03/05 00:18:36;;;;;;;56.30;22.75;;;-1.20;99.90;;;;;;5081491;28;20028;-78
2022/03/05 00:21:01;;;;;;;54.15;21.17;;;-1.20;99.90;;;;;;5065158;27;20028;-79
2022/03/05 00:23:27;;;;;;;56.63;23.45;;;-1.20;99.90;;;;;;5083634;27;20395;-78
2022/03/05 00:25:52;;;;;;;55.08;22.58;;;-1.20;99.90;;;;;;5082162;28;20036;-79
2022/03/05 00:28:18;;;;;;;57.22;23.42;;;-1.30;99.90;;;;;;5080590;28;20119;-80
2022/03/05 00:30:43;;;;;;;56.67;22.67;;;-1.40;99.90;;;;;;5075225;28;20035;-78
2022/03/05 00:33:09;;;;;;;54.72;22.63;;;-1.40;99.90;;;;;;5068918;28;20502;-79
2022/03/05 00:35:34;;;;;;;53.63;22.45;;;-1.50;99.90;;;;;;5078815;27;20352;-79
2022/03/05 00:38:00;;;;;;;57.28;23.38;;;-1.40;99.90;;;;;;5096838;28;20032;-79
2022/03/05 00:40:26;;;;;;;52.67;22.83;;;-1.40;99.90;;;;;;5081455;28;20523;-80
2022/03/05 00:42:52;;;;;;;55.97;23.33;;;-1.40;99.90;;;;;;5082317;28;20027;-79
2022/03/05 00:45:17;;;;;;;51.45;23.35;;;-1.40;99.90;;;;;;5078677;28;20538;-79
2022/03/05 00:47:43;;;;;;;58.85;24.65;;;-1.50;99.90;;;;;;5094726;28;20474;-78
2022/03/05 00:50:09;;;;;;;55.35;24.00;;;-1.60;99.90;;;;;;5079712;28;20043;-79
2022/03/05 00:52:35;;;;;;;64.30;25.13;;;-1.70;99.90;;;;;;5083530;28;20038;-80
2022/03/05 00:55:00;;;;;;;52.38;22.75;;;-1.80;99.90;;;;;;5098788;27;20032;-79
2022/03/05 00:57:26;;;;;;;58.05;23.73;;;-1.80;99.90;;;;;;5081885;28;20039;-80
2022/03/05 00:59:52;;;;;;;63.92;23.58;;;-1.80;99.90;;;;;;5081991;27;20027;-78
2022/03/05 01:02:17;;;;;;;60.90;25.65;;;-1.90;99.90;;;;;;5076940;28;20027;-80
2022/03/05 01:04:43;;;;;;;60.40;24.58;;;-1.90;99.90;;;;;;5072292;27;20111;-79
2022/03/05 01:07:08;;;;;;;59.33;24.58;;;-1.90;99.90;;;;;;5082468;28;20372;-79
2022/03/05 01:09:34;;;;;;;60.15;24.70;;;-1.90;99.90;;;;;;5098962;27;20035;-79
2022/03/05 01:12:00;;;;;;;64.35;24.58;;;-2.00;99.90;;;;;;5083822;27;20558;-78
2022/03/05 01:14:25;;;;;;;63.15;25.48;;;-2.00;99.90;;;;;;5080566;28;20032;-79
2022/03/05 01:16:51;;;;;;;55.33;22.92;;;-2.10;99.90;;;;;;5097602;28;20024;-79
2022/03/05 01:19:16;;;;;;;64.10;24.55;;;-2.10;99.90;;;;;;5082663;28;20067;-78
2022/03/05 01:21:42;;;;;;;59.03;23.15;;;-2.10;99.90;;;;;;5081099;28;20039;-80
2022/03/05 01:24:08;;;;;;;61.72;25.13;;;-2.10;99.90;;;;;;5083124;28;20035;-80
2022/03/05 01:26:33;;;;;;;55.97;25.27;;;-2.10;99.90;;;;;;5097035;27;20077;-79
2022/03/05 01:28:59;;;;;;;55.10;23.95;;;-2.20;99.90;;;;;;5082664;28;20043;-78
2022/03/05 01:31:24;;;;;;;58.63;23.13;;;-2.20;99.90;;;;;;5076210;28;20030;-80
2022/03/05 01:33:50;;;;;;;65.85;23.95;;;-2.20;99.90;;;;;;5096170;27;20024;-79
2022/03/05 01:36:15;;;;;;;65.85;23.92;;;-2.10;99.90;;;;;;5083590;27;20055;-81
2022/03/05 01:38:41;;;;;;;59.28;23.77;;;-2.20;99.90;;;;;;5071131;28;20028;-78
2022/03/05 01:41:06;;;;;;;57.17;23.77;;;-2.20;99.90;;;;;;5081571;28;20036;-79
2022/03/05 01:43:32;;;;;;;61.55;23.52;;;-2.20;99.90;;;;;;5096864;27;20077;-79
2022/03/05 01:45:57;;;;;;;64.20;23.92;;;-2.20;99.90;;;;;;5083290;27;20506;-81
2022/03/05 01:48:23;;;;;;;57.47;22.85;;;-2.30;99.90;;;;;;5070857;27;20553;-82
2022/03/05 01:50:49;;;;;;;62.08;22.95;;;-2.30;99.90;;;;;;5076447;27;20509;-80
2022/03/05 01:53:14;;;;;;;62.15;25.17;;;-2.30;99.90;;;;;;5082060;27;20043;-79
2022/03/05 01:55:41;;;;;;;59.67;22.48;;;-2.20;99.90;;;;;;5082442;28;20032;-79
2022/03/05 01:58:07;;;;;;;60.95;23.77;;;-2.30;99.90;;;;;;5090310;28;20039;-78
2022/03/05 02:00:32;;;;;;;61.53;23.20;;;-2.20;99.90;;;;;;5086766;27;20114;-80
2022/03/05 02:02:58;;;;;;;55.35;21.90;;;-2.20;99.90;;;;;;5096947;27;20546;-79
2022/03/05 02:05:23;;;;;;;55.50;21.35;;;-2.40;99.90;;;;;;5084142;28;20115;-79
2022/03/05 02:07:49;;;;;;;60.88;23.52;;;-2.30;99.90;;;;;;5087026;27;20020;-79
2022/03/05 02:10:15;;;;;;;67.03;24.17;;;-2.30;99.90;;;;;;5100217;27;20043;-79
2022/03/05 02:12:40;;;;;;;60.88;22.17;;;-2.40;99.90;;;;;;5104846;28;20031;-79
2022/03/05 02:15:07;;;;;;;61.75;23.25;;;-2.50;99.90;;;;;;5074735;27;20028;-78
2022/03/05 02:17:33;;;;;;;61.60;23.35;;;-2.50;99.90;;;;;;5066320;27;20430;-79
2022/03/05 02:19:58;;;;;;;61.35;23.98;;;-2.50;99.90;;;;;;5095141;27;20044;-79
2022/03/05 02:22:25;;;;;;;60.83;24.05;;;-2.50;99.90;;;;;;5083460;27;20035;-77
2022/03/05 02:24:59;;;;;;;59.72;23.10;;;-2.50;99.90;;;;;;5082503;28;20141;-78
2022/03/05 02:27:25;;;;;;;63.60;22.98;;;-2.60;99.90;;;;;;5086390;27;20035;-79
2022/03/05 02:29:51;;;;;;;56.65;21.90;;;-2.60;99.90;;;;;;5066776;28;20123;-78
2022/03/05 02:32:16;;;;;;;62.65;23.33;;;-2.60;99.90;;;;;;5069946;27;20123;-78
2022/03/05 02:34:42;;;;;;;61.15;22.00;;;-2.60;99.90;;;;;;5075109;28;20504;-79
2022/03/05 02:37:17;;;;;;;60.70;23.42;;;-2.60;99.90;;;;;;5080757;27;20545;-78
2022/03/05 02:39:43;;;;;;;63.57;23.13;;;-2.60;99.90;;;;;;5067508;28;20027;-78
2022/03/05 02:42:08;;;;;;;61.60;23.63;;;-2.60;99.90;;;;;;5082849;28;20123;-78
2022/03/05 02:44:34;;;;;;;61.00;22.67;;;-2.60;99.90;;;;;;5096284;27;20165;-78
2022/03/05 02:46:59;;;;;;;58.30;22.88;;;-2.60;99.90;;;;;;5086107;27;20034;-79
2022/03/05 02:49:25;;;;;;;54.65;23.27;;;-2.60;99.90;;;;;;5086194;27;20058;-78
2022/03/05 02:51:51;;;;;;;60.30;22.33;;;-2.60;99.90;;;;;;5076646;28;20028;-78
2022/03/05 02:54:16;;;;;;;60.58;23.67;;;-2.60;99.90;;;;;;5065174;27;20028;-79
2022/03/05 02:56:42;;;;;;;52.08;21.17;;;-2.60;99.90;;;;;;5070394;28;20021;-79
2022/03/05 02:59:08;;;;;;;56.50;21.80;;;-2.70;99.90;;;;;;5097255;28;20028;-78
2022/03/05 03:01:33;;;;;;;56.92;20.70;;;-2.80;99.90;;;;;;5098698;27;20462;-78
2022/03/05 03:03:59;;;;;;;57.35;21.83;;;-2.80;99.90;;;;;;5100708;27;20604;-79
2022/03/05 03:06:24;;;;;;;49.35;19.92;;;-2.80;99.90;;;;;;5095081;27;20029;-78
2022/03/05 03:08:50;;;;;;;60.28;22.48;;;-2.80;99.90;;;;;;5062620;28;20019;-78
2022/03/05 03:11:15;;;;;;;60.72;21.63;;;-2.80;99.90;;;;;;5080962;28;20037;-78
2022/03/05 03:13:41;;;;;;;51.40;18.25;;;-2.80;99.90;;;;;;5073567;28;20066;-78
2022/03/05 03:16:06;;;;;;;54.40;20.67;;;-2.80;99.90;;;;;;5071910;27;20077;-78
2022/03/05 03:18:32;;;;;;;63.33;22.17;;;-2.80;99.90;;;;;;5082435;27;22149;-78
2022/03/05 03:20:57;;;;;;;60.08;21.70;;;-2.90;99.90;;;;;;5067427;28;20150;-78
2022/03/05 03:23:23;;;;;;;53.40;21.88;;;-2.90;99.90;;;;;;5082014;28;20032;-78
2022/03/05 03:25:48;;;;;;;52.60;20.33;;;-2.90;99.90;;;;;;5067276;27;20035;-80
2022/03/05 03:28:14;;;;;;;64.88;21.00;;;-2.90;99.90;;;;;;5079186;28;20028;-79
2022/03/05 03:30:39;;;;;;;61.85;20.70;;;-2.90;99.90;;;;;;5095278;28;20117;-80
2022/03/05 03:33:05;;;;;;;54.60;22.98;;;-2.90;99.90;;;;;;5094786;28;20111;-79
2022/03/05 03:35:31;;;;;;;58.72;19.85;;;-2.90;99.90;;;;;;5077530;28;20036;-79
2022/03/05 03:37:57;;;;;;;58.70;20.80;;;-2.90;99.90;;;;;;5099921;27;20036;-79
2022/03/05 03:40:22;;;;;;;62.53;21.10;;;-3.00;99.90;;;;;;5101338;27;20036;-78
2022/03/05 03:42:49;;;;;;;64.28;22.58;;;-2.90;99.90;;;;;;5085429;27;20023;-79
2022/03/05 03:45:15;;;;;;;56.33;20.60;;;-2.90;99.90;;;;;;5065244;28;20032;-78
2022/03/05 03:47:43;;;;;;;60.97;21.58;;;-2.90;99.90;;;;;;5075643;27;20445;-79
2022/03/05 03:50:10;;;;;;;69.30;23.08;;;-3.00;99.90;;;;;;5082364;28;20040;-79
2022/03/05 03:52:35;;;;;;;52.25;20.25;;;-3.00;99.90;;;;;;5097291;28;20036;-78
2022/03/05 03:55:01;;;;;;;60.58;22.35;;;-3.00;99.90;;;;;;5076601;28;20036;-78
2022/03/05 03:57:26;;;;;;;70.47;22.95;;;-2.90;99.90;;;;;;5082607;27;20431;-82
2022/03/05 03:59:52;;;;;;;51.38;21.10;;;-3.00;99.90;;;;;;5082137;28;20038;-78
2022/03/05 04:02:19;;;;;;;52.88;20.55;;;-3.00;99.90;;;;;;5068789;28;20032;-80
2022/03/05 04:04:46;;;;;;;57.20;20.52;;;-3.00;99.90;;;;;;5071328;28;20027;-78
2022/03/05 04:09:56;;;;;;;59.90;22.02;;;-3.00;99.90;;;;;;5096576;28;20097;-80
2022/03/05 04:12:22;;;;;;;56.03;22.08;;;-3.10;99.90;;;;;;5080674;27;20047;-80
2022/03/05 04:14:48;;;;;;;57.05;21.55;;;-3.00;99.90;;;;;;5070533;28;20031;-79
2022/03/05 04:17:13;;;;;;;56.80;20.45;;;-3.10;99.90;;;;;;5084078;28;20031;-79
2022/03/05 04:19:39;;;;;;;50.20;19.13;;;-3.10;99.90;;;;;;5073708;28;20399;-79
2022/03/05 04:22:05;;;;;;;53.65;20.85;;;-3.10;99.90;;;;;;5081419;28;20028;-79
2022/03/05 04:24:31;;;;;;;63.88;21.90;;;-3.20;99.90;;;;;;5082704;27;20073;-79
2022/03/05 04:26:56;;;;;;;59.20;21.58;;;-3.20;99.90;;;;;;5069234;28;20027;-78
2022/03/05 04:29:22;;;;;;;60.88;21.35;;;-3.20;99.90;;;;;;5074550;27;20032;-79
2022/03/05 04:31:47;;;;;;;55.95;21.70;;;-3.20;99.90;;;;;;5083995;28;20107;-78
2022/03/05 04:34:13;;;;;;;64.50;22.10;;;-3.20;99.90;;;;;;5081384;28;20462;-79
2022/03/05 04:36:38;;;;;;;58.42;21.67;;;-3.20;99.90;;;;;;5081718;28;20036;-78
2022/03/05 04:39:04;;;;;;;58.28;20.85;;;-3.20;99.90;;;;;;5079379;28;20036;-78
2022/03/05 04:41:30;;;;;;;57.50;21.05;;;-3.10;99.90;;;;;;5095628;27;20160;-79
2022/03/05 04:43:55;;;;;;;52.53;20.90;;;-3.20;99.90;;;;;;5077112;27;20036;-79
2022/03/05 04:46:21;;;;;;;57.13;20.38;;;-3.20;99.90;;;;;;5095696;27;20036;-79
2022/03/05 04:48:46;;;;;;;67.38;21.63;;;-3.20;99.90;;;;;;5070817;28;20084;-78
2022/03/05 04:51:12;;;;;;;54.35;21.13;;;-3.30;99.90;;;;;;5077038;28;20039;-79
2022/03/05 04:53:37;;;;;;;61.00;20.75;;;-3.30;99.90;;;;;;5079437;27;20053;-80
2022/03/05 04:56:03;;;;;;;56.78;20.65;;;-3.30;99.90;;;;;;5083028;27;20047;-80
2022/03/05 04:58:29;;;;;;;57.03;20.63;;;-3.30;99.90;;;;;;5079509;28;20035;-79
2022/03/05 05:00:54;;;;;;;58.05;20.77;;;-3.20;99.90;;;;;;5069925;27;20034;-80
2022/03/05 05:03:20;;;;;;;52.17;20.38;;;-3.20;99.90;;;;;;5080583;28;20133;-80
2022/03/05 05:05:45;;;;;;;52.28;21.92;;;-3.30;99.90;;;;;;5098731;28;20024;-79
2022/03/05 05:08:11;;;;;;;55.22;20.25;;;-3.30;99.90;;;;;;5077871;28;20042;-79
2022/03/05 05:10:36;;;;;;;55.97;20.15;;;-3.30;99.90;;;;;;5076419;28;20039;-79
2022/03/05 05:13:02;;;;;;;57.28;20.77;;;-3.40;99.90;;;;;;5059942;28;20028;-80
2022/03/05 05:15:27;;;;;;;60.35;21.10;;;-3.40;99.90;;;;;;5065270;28;20019;-79
2022/03/05 05:17:53;;;;;;;61.40;20.38;;;-3.30;99.90;;;;;;5060806;28;20028;-79
2022/03/05 05:20:18;;;;;;;54.95;20.90;;;-3.30;99.90;;;;;;5097720;28;20122;-80
2022/03/05 05:22:44;;;;;;;57.90;20.00;;;-3.30;99.90;;;;;;5071294;28;20028;-79
2022/03/05 05:25:18;;;;;;;59.53;20.52;;;-3.30;99.90;;;;;;5095045;27;20035;-80
2022/03/05 05:27:45;;;;;;;52.65;19.88;;;-3.30;99.90;;;;;;5064894;27;20031;-81
2022/03/05 05:30:10;;;;;;;66.60;21.83;;;-3.30;99.90;;;;;;5061110;28;20043;-80
2022/03/05 05:32:36;;;;;;;56.70;19.13;;;-3.30;99.90;;;;;;5063888;27;20036;-79
2022/03/05 05:35:01;;;;;;;58.50;20.00;;;-3.40;99.90;;;;;;5064879;28;20024;-80
2022/03/05 05:37:27;;;;;;;47.53;20.20;;;-3.40;99.90;;;;;;5095587;28;20043;-79
2022/03/05 05:39:54;;;;;;;62.60;21.20;;;-3.40;99.90;;;;;;5092359;27;20048;-79
2022/03/05 05:42:20;;;;;;;57.05;20.42;;;-3.30;99.90;;;;;;5079334;28;20058;-78
2022/03/05 05:44:45;;;;;;;51.33;18.75;;;-3.30;99.90;;;;;;5081849;28;20047;-79
2022/03/05 05:47:11;;;;;;;59.60;19.20;;;-3.30;99.90;;;;;;5080557;28;20032;-78
2022/03/05 05:49:36;;;;;;;57.30;20.20;;;-3.30;99.90;;;;;;5082610;27;20031;-83
2022/03/05 05:52:02;;;;;;;54.08;19.10;;;-3.40;99.90;;;;;;5098102;28;20488;-79
2022/03/05 05:54:28;;;;;;;56.45;19.70;;;-3.40;99.90;;;;;;5078912;28;20024;-78
2022/03/05 05:56:54;;;;;;;65.97;22.50;;;-3.40;99.90;;;;;;5066805;27;20455;-78
2022/03/05 05:59:19;;;;;;;64.10;20.77;;;-3.40;99.90;;;;;;5098611;28;20028;-81
2022/03/05 06:01:45;;;;;;;61.65;20.20;;;-3.50;99.90;;;;;;5081456;28;20385;-79
2022/03/05 06:04:10;;;;;;;56.67;20.17;;;-3.50;99.90;;;;;;5077520;28;20035;-79
2022/03/05 06:06:36;;;;;;;55.42;19.63;;;-3.40;99.90;;;;;;5095787;28;20467;-81
2022/03/05 06:09:03;;;;;;;55.10;19.98;;;-3.40;99.90;;;;;;5092775;28;20491;-81
2022/03/05 06:11:30;;;;;;;60.33;20.33;;;-3.50;99.90;;;;;;5082043;27;20490;-79
2022/03/05 06:13:55;;;;;;;66.03;21.52;;;-3.60;99.90;;;;;;5093910;27;20016;-78
2022/03/05 06:16:21;;;;;;;53.60;21.23;;;-3.40;99.90;;;;;;5079132;28;20020;-80
2022/03/05 06:18:47;;;;;;;58.33;18.58;;;-3.50;99.90;;;;;;5098133;27;20055;-78
2022/03/05 06:21:12;;;;;;;57.38;20.17;;;-3.50;99.90;;;;;;5080830;27;20028;-80
2022/03/05 06:23:38;;;;;;;48.53;17.92;;;-3.40;99.90;;;;;;5084390;27;20047;-80
2022/03/05 06:26:04;;;;;;;63.92;21.55;;;-3.40;99.90;;;;;;5080078;28;20028;-79
2022/03/05 06:28:29;;;;;;;53.10;19.52;;;-3.40;99.90;;;;;;5078283;27;20032;-79
2022/03/05 06:30:55;;;;;;;69.97;21.35;;;-3.30;99.90;;;;;;5081402;28;20563;-79
2022/03/05 06:33:21;;;;;;;51.33;20.02;;;-3.30;99.90;;;;;;5071185;28;20036;-80
2022/03/05 06:35:46;;;;;;;56.28;20.10;;;-3.30;99.90;;;;;;5076404;27;20074;-79
2022/03/05 06:38:12;;;;;;;51.35;19.23;;;-3.30;99.90;;;;;;5082972;28;20040;-79
2022/03/05 06:40:37;;;;;;;55.53;20.20;;;-3.30;99.90;;;;;;5098093;27;20059;-80
2022/03/05 06:43:03;;;;;;;52.95;21.45;;;-3.30;99.90;;;;;;5085171;27;20396;-81
2022/03/05 06:45:29;;;;;;;48.33;19.08;;;-3.30;99.90;;;;;;5083502;27;20024;-80
2022/03/05 06:47:54;;;;;;;56.25;19.95;;;-3.30;99.90;;;;;;5087165;28;20057;-80
2022/03/05 06:50:20;;;;;;;50.42;19.50;;;-3.30;99.90;;;;;;5083887;28;20039;-79
2022/03/05 06:52:45;;;;;;;58.28;19.02;;;-3.30;99.90;;;;;;5070710;28;20057;-79
2022/03/05 06:55:16;;;;;;;50.33;20.42;;;-3.30;99.90;;;;;;5098101;28;20420;-81
2022/03/05 06:57:42;;;;;;;54.30;18.90;;;-3.20;99.90;;;;;;5083188;27;20028;-78
2022/03/05 07:00:09;;;;;;;58.95;20.73;;;-3.20;99.90;;;;;;5090657;28;20036;-82
2022/03/05 07:02:34;;;;;;;63.33;20.30;;;-3.10;99.90;;;;;;5078452;27;20020;-79
2022/03/05 07:05:00;;;;;;;61.70;20.17;;;-3.10;99.90;;;;;;5077979;27;20032;-79
2022/03/05 07:07:25;;;;;;;62.22;20.65;;;-3.20;99.90;;;;;;5084199;28;20560;-79
2022/03/05 07:09:51;;;;;;;55.30;19.27;;;-3.00;99.90;;;;;;5089195;28;20523;-79
2022/03/05 07:12:17;;;;;;;59.33;21.60;;;-2.90;99.90;;;;;;5098690;28;20032;-80
2022/03/05 07:14:44;;;;;;;58.17;19.58;;;-2.90;99.90;;;;;;5081912;27;20032;-79
2022/03/05 07:17:10;;;;;;;56.47;19.52;;;-2.90;99.90;;;;;;5098592;28;20044;-80
2022/03/05 07:19:36;;;;;;;56.67;21.10;;;-2.80;99.90;;;;;;5079823;27;20084;-80
2022/03/05 07:22:01;;;;;;;62.40;20.63;;;-2.80;99.90;;;;;;5096295;27;20028;-78
2022/03/05 07:24:29;;;;;;;62.58;20.25;;;-2.70;99.90;;;;;;5077979;28;20479;-79
2022/03/05 07:26:54;;;;;;;65.38;23.08;;;-2.70;99.90;;;;;;5100151;28;20028;-79
2022/03/05 07:29:20;;;;;;;63.50;21.63;;;-2.60;99.90;;;;;;5082802;28;20386;-79
2022/03/05 07:31:45;;;;;;;71.40;22.77;;;-2.60;99.90;;;;;;5066036;28;20110;-79
2022/03/05 07:34:11;;;;;;;60.10;22.30;;;-2.60;99.90;;;;;;5079804;28;20497;-79
2022/03/05 07:36:36;;;;;;;61.42;21.30;;;-2.60;99.90;;;;;;5079528;28;20019;-79
2022/03/05 07:39:04;;;;;;;77.22;24.15;;;-2.50;99.90;;;;;;5095557;28;20036;-79
2022/03/05 07:41:29;;;;;;;65.53;22.10;;;-2.50;99.90;;;;;;5083392;28;20048;-79
2022/03/05 07:43:57;;;;;;;69.90;21.73;;;-2.20;99.90;;;;;;5070792;28;20100;-79
2022/03/05 07:46:25;;;;;;;63.53;21.35;;;-2.10;99.90;;;;;;5068320;28;20108;-78
2022/03/05 07:48:50;;;;;;;63.50;20.63;;;-1.90;99.90;;;;;;5067851;28;20035;-79
2022/03/05 07:51:16;;;;;;;59.28;20.88;;;-1.50;99.90;;;;;;5078394;27;20039;-79
2022/03/05 07:53:42;;;;;;;54.42;20.67;;;-1.20;99.90;;;;;;5084845;27;20108;-79
2022/03/05 07:56:09;;;;;;;51.00;20.05;;;-1.20;99.90;;;;;;5076188;28;20115;-79
2022/03/05 07:58:34;;;;;;;46.60;19.48;;;-0.80;99.90;;;;;;5084952;27;20475;-79
2022/03/05 08:01:00;;;;;;;45.70;18.58;;;-0.60;99.90;;;;;;5081780;28;20036;-79
2022/03/05 08:03:26;;;;;;;51.75;19.17;;;-0.40;99.90;;;;;;5064374;28;20036;-79
2022/03/05 08:05:53;;;;;;;49.88;19.05;;;-0.50;99.90;;;;;;5084098;28;20040;-81
2022/03/05 08:08:19;;;;;;;58.28;22.92;;;-0.70;99.90;;;;;;5074343;28;20036;-80
2022/03/05 08:10:44;;;;;;;47.47;18.88;;;-0.60;99.90;;;;;;5073535;27;20035;-79
2022/03/05 08:13:10;;;;;;;47.70;19.02;;;-0.50;99.90;;;;;;5080562;28;20044;-80
2022/03/05 08:15:35;;;;;;;44.90;16.55;;;-0.30;99.90;;;;;;5093343;27;20035;-79
2022/03/05 08:18:01;;;;;;;47.88;20.77;;;0.10;99.90;;;;;;5079239;28;20032;-81
2022/03/05 08:20:29;;;;;;;39.90;15.02;;;0.20;99.90;;;;;;5097432;27;20043;-80
2022/03/05 08:22:54;;;;;;;51.20;17.70;;;0.50;99.90;;;;;;5086687;28;20038;-80
2022/03/05 08:25:20;;;;;;;50.55;20.48;;;0.60;99.90;;;;;;5061538;27;20028;-79
2022/03/05 08:27:46;;;;;;;49.47;17.50;;;0.40;99.90;;;;;;5069514;28;20028;-79
2022/03/05 08:30:12;;;;;;;43.67;15.77;;;0.70;99.90;;;;;;5074787;28;20036;-79
2022/03/05 08:32:37;;;;;;;49.13;18.35;;;1.10;99.90;;;;;;5068951;27;20028;-80
2022/03/05 08:35:04;;;;;;;46.50;19.35;;;1.20;99.90;;;;;;5078229;28;20048;-80
2022/03/05 08:37:29;;;;;;;44.78;18.33;;;1.20;99.90;;;;;;5064409;28;20028;-79
2022/03/05 08:39:55;;;;;;;43.55;17.00;;;1.30;99.90;;;;;;5096254;28;20034;-79
2022/03/05 08:42:21;;;;;;;45.15;16.48;;;1.50;99.90;;;;;;5077681;27;20027;-79
2022/03/05 08:44:46;;;;;;;38.33;16.58;;;1.40;99.90;;;;;;5069943;27;20108;-79
2022/03/05 08:47:12;;;;;;;44.15;18.98;;;1.80;99.90;;;;;;5091825;27;20036;-79
2022/03/05 08:49:37;;;;;;;43.45;17.65;;;1.90;99.90;;;;;;5061410;27;20020;-79
2022/03/05 08:52:03;;;;;;;44.55;17.00;;;1.90;99.90;;;;;;5078358;28;20031;-79
2022/03/05 08:54:29;;;;;;;42.67;16.75;;;2.30;99.90;;;;;;5077511;28;20393;-80
2022/03/05 08:56:54;;;;;;;39.35;15.88;;;1.80;99.90;;;;;;5067443;28;20045;-80
2022/03/05 08:59:20;;;;;;;44.13;17.63;;;2.00;99.90;;;;;;5077155;28;20376;-79
2022/03/05 09:01:46;;;;;;;39.40;16.00;;;2.30;99.90;;;;;;5072410;27;20031;-78
2022/03/05 09:04:12;;;;;;;38.58;16.63;;;2.10;99.90;;;;;;5065268;27;20047;-79
2022/03/05 09:06:38;;;;;;;40.08;17.70;;;3.00;99.90;;;;;;5096973;27;20031;-78
2022/03/05 09:09:04;;;;;;;36.10;14.75;;;2.80;99.90;;;;;;5062319;27;20032;-78
2022/03/05 09:11:29;;;;;;;42.97;17.20;;;2.90;99.90;;;;;;5089496;27;20450;-79
2022/03/05 09:13:55;;;;;;;37.17;15.93;;;3.30;99.90;;;;;;5078524;28;20028;-78
2022/03/05 09:16:21;;;;;;;34.00;15.10;;;3.80;99.90;;;;;;5064251;28;20028;-78
2022/03/05 09:18:46;;;;;;;29.63;13.43;;;3.60;99.90;;;;;;5090939;28;20032;-79
2022/03/05 09:21:12;;;;;;;30.05;14.38;;;4.30;99.90;;;;;;5080136;27;20031;-78
2022/03/05 09:23:37;;;;;;;34.65;17.80;;;4.30;99.90;;;;;;5091723;27;20027;-78
2022/03/05 09:26:03;;;;;;;36.22;17.10;;;3.50;99.90;;;;;;5093932;28;20054;-78
2022/03/05 09:28:29;;;;;;;32.65;16.42;;;3.20;99.90;;;;;;5095685;28;20499;-78
2022/03/05 09:30:54;;;;;;;36.50;17.80;;;3.80;99.90;;;;;;5069069;28;20035;-78
2022/03/05 09:33:22;;;;;;;36.97;15.55;;;4.40;99.90;;;;;;5078404;28;20032;-78
2022/03/05 09:35:49;;;;;;;30.10;14.77;;;4.60;99.90;;;;;;5080175;27;20036;-78
2022/03/05 09:38:14;;;;;;;31.23;13.20;;;5.10;99.90;;;;;;5091936;27;20132;-78
2022/03/05 09:40:40;;;;;;;29.95;15.32;;;5.50;99.90;;;;;;5069060;27;20494;-79
2022/03/05 09:43:05;;;;;;;34.78;15.85;;;5.90;99.90;;;;;;5077288;27;20109;-78
2022/03/05 09:45:31;;;;;;;34.88;14.82;;;5.20;99.90;;;;;;5077944;28;20157;-78
2022/03/05 09:47:57;;;;;;;27.33;12.00;;;5.00;99.90;;;;;;5076948;28;20089;-78
2022/03/05 09:50:28;;;;;;;26.75;12.57;;;5.20;99.90;;;;;;5094339;27;20113;-78
2022/03/05 09:52:54;;;;;;;26.63;12.38;;;5.20;99.90;;;;;;5081620;28;20084;-78
2022/03/05 09:55:20;;;;;;;27.38;12.32;;;5.80;99.90;;;;;;5091217;28;20040;-79
2022/03/05 09:57:45;;;;;;;29.27;12.50;;;6.30;99.90;;;;;;5068521;27;20172;-78
2022/03/05 10:00:11;;;;;;;25.00;12.73;;;6.30;99.90;;;;;;5075680;27;20040;-78
2022/03/05 10:02:38;;;;;;;27.83;13.45;;;7.10;99.90;;;;;;5095392;27;20027;-78
2022/03/05 10:05:26;;;;;;;26.42;13.27;;;6.70;99.90;;;;;;5090100;27;20020;-78
2022/03/05 10:08:08;;;;;;;30.58;13.50;;;7.10;99.90;;;;;;5095326;28;20110;-78
2022/03/05 10:10:54;;;;;;;26.48;13.50;;;7.20;99.90;;;;;;5075914;27;20083;-78
2022/03/05 10:13:28;;;;;;;;;;;6.90;99.90;;;;;;5098161;27;20084;-78
2022/03/05 10:15:56;;;;;;;28.48;11.88;;;6.80;99.90;;;;;;5080384;27;20422;-78
2022/03/05 10:18:30;;;;;;;23.42;11.80;;;7.20;99.90;;;;;;5083663;27;20040;-78
2022/03/05 10:20:56;;;;;;;29.05;13.65;;;7.80;99.90;;;;;;5103967;27;20449;-78
2022/03/05 10:23:22;;;;;;;22.50;10.73;;;9.30;99.90;;;;;;5079185;28;20119;-78
2022/03/05 10:25:54;;;;;;;23.02;10.82;;;9.40;99.90;;;;;;5070926;28;20063;-81
2022/03/05 10:28:27;;;;;;;19.42;10.80;;;9.40;99.90;;;;;;5063702;27;20039;-78
2022/03/05 10:30:53;;;;;;;25.60;12.07;;;9.70;99.90;;;;;;5082978;27;20393;-79
2022/03/05 10:33:33;;;;;;;19.17;10.00;;;7.90;99.90;;;;;;5083217;28;20058;-78
2022/03/05 10:36:03;;;;;;;21.35;9.50;;;9.30;99.90;;;;;;5094413;28;20139;-79
2022/03/05 10:38:41;;;;;;;19.70;10.40;;;10.10;99.90;;;;;;5101964;28;20032;-79
2022/03/05 10:41:07;;;;;;;18.95;9.95;;;11.00;95.30;;;;;;5079293;27;20081;-79
2022/03/05 10:43:33;;;;;;;17.58;9.75;;;11.30;90.10;;;;;;5083217;28;20032;-78
2022/03/05 10:45:58;;;;;;;20.88;10.40;;;10.90;91.70;;;;;;5081792;28;20042;-80
2022/03/05 10:48:28;;;;;;;18.58;10.45;;;11.10;91.00;;;;;;5092009;28;20032;-81
2022/03/05 10:50:55;;;;;;;17.67;10.43;;;11.40;89.90;;;;;;5083694;27;20046;-78
2022/03/05 10:53:53;;;;;;;17.88;10.57;;;11.60;87.90;;;;;;5079442;28;20032;-79
2022/03/05 10:56:28;;;;;;;17.40;9.43;;;11.70;84.70;;;;;;5088710;28;20039;-78
2022/03/05 10:59:09;;;;;;;19.20;10.20;;;11.70;84.90;;;;;;5081823;27;20086;-79
2022/03/05 11:01:40;;;;;;;16.52;9.00;;;12.10;77.10;;;;;;5083861;27;20402;-79
2022/03/05 11:04:06;;;;;;;19.17;9.45;;;11.80;85.60;;;;;;5097652;28;20020;-78
2022/03/05 11:06:34;;;;;;;20.95;9.73;;;11.40;88.20;;;;;;5079358;28;20028;-78
2022/03/05 11:08:59;;;;;;;20.92;9.75;;;11.80;84.00;;;;;;5077217;28;20395;-79
2022/03/05 11:11:25;;;;;;;20.50;10.15;;;11.80;82.80;;;;;;5099068;27;20032;-79
2022/03/05 11:13:51;;;;;;;20.98;9.93;;;12.80;74.50;;;;;;5077763;27;20040;-79
2022/03/05 11:16:16;;;;;;;17.38;9.18;;;12.60;71.40;;;;;;5082155;27;20043;-79
2022/03/05 11:18:42;;;;;;;23.33;10.57;;;12.90;63.40;;;;;;5091060;28;20419;-79
2022/03/05 11:21:08;;;;;;;16.42;10.02;;;12.70;65.80;;;;;;5077187;28;20039;-79
2022/03/05 11:23:34;;;;;;;18.25;10.05;;;12.40;62.00;;;;;;5081727;28;20043;-79
2022/03/05 11:26:00;;;;;;;17.02;9.82;;;12.30;63.60;;;;;;5095758;27;20032;-79
2022/03/05 11:28:35;;;;;;;15.15;8.73;;;11.80;72.50;;;;;;5080900;27;20078;-79
2022/03/05 11:31:01;;;;;;;16.83;9.30;;;12.70;66.00;;;;;;5080542;28;20036;-79
2022/03/05 11:33:38;;;;;;;16.23;8.52;;;12.70;67.60;;;;;;5083532;27;20027;-78
2022/03/05 11:36:04;;;;;;;16.95;9.48;;;13.20;67.10;;;;;;5087121;28;20165;-79
2022/03/05 11:38:32;;;;;;;21.45;10.82;;;13.40;62.40;;;;;;5093886;27;20043;-78
2022/03/05 11:40:58;;;;;;;17.23;9.15;;;12.90;64.90;;;;;;5077592;28;20506;-79
2022/03/05 11:43:24;;;;;;;19.00;11.48;;;12.30;70.00;;;;;;5075375;27;20032;-79
2022/03/05 11:46:01;;;;;;;16.02;8.82;;;12.30;82.60;;;;;;5070565;28;20054;-78
2022/03/05 11:48:30;;;;;;;15.40;8.18;;;12.50;74.70;;;;;;5092704;27;20066;-78
2022/03/05 11:51:07;;;;;;;13.95;8.65;;;13.70;66.40;;;;;;5075675;28;20110;-79
2022/03/05 11:53:32;;;;;;;15.73;8.15;;;13.60;69.50;;;;;;5078480;28;20123;-79
2022/03/05 11:55:58;;;;;;;18.17;8.93;;;13.60;64.80;;;;;;5090648;28;20114;-79
2022/03/05 11:58:28;;;;;;;18.15;9.93;;;14.20;62.20;;;;;;5088672;28;20028;-79
2022/03/05 12:00:55;;;;;;;17.42;10.18;;;13.90;64.10;;;;;;5096093;27;20036;-79
2022/03/05 12:03:42;;;;;;;19.10;8.75;;;13.10;67.60;;;;;;5078976;28;20032;-79
2022/03/05 12:06:09;;;;;;;14.40;8.80;;;13.80;62.50;;;;;;5076308;27;20023;-79
2022/03/05 12:08:35;;;;;;;19.27;9.48;;;14.20;62.70;;;;;;4374630;28;10000426;-79
2022/03/05 12:11:14;;;;;;;16.38;9.10;;;15.00;57.00;;;;;;5089409;28;20066;-79
2022/03/05 12:13:41;;;;;;;15.68;8.57;;;15.40;54.60;;;;;;5093509;27;20039;-79
2022/03/05 12:16:14;;;;;;;15.82;9.38;;;15.30;58.60;;;;;;5087615;28;20404;-79
2022/03/05 12:18:41;;;;;;;16.85;8.95;;;15.10;58.20;;;;;;5091627;28;20042;-79
2022/03/05 12:21:06;;;;;;;14.65;8.80;;;14.40;61.80;;;;;;5060377;28;20036;-80
2022/03/05 12:23:32;;;;;;;19.27;10.52;;;14.80;56.70;;;;;;5092895;28;20085;-79
2022/03/05 12:25:57;;;;;;;15.27;9.30;;;15.20;54.70;;;;;;5092196;27;20402;-79
2022/03/05 12:28:23;;;;;;;15.80;9.02;;;15.50;54.10;;;;;;5069089;28;20039;-79
2022/03/05 12:30:51;;;;;;;17.63;9.23;;;16.20;53.80;;;;;;5075075;28;20034;-79